createdAt,value
2018-02-20T00:01:39.042Z,22.50
2018-02-20T00:04:06.096Z,23.20
2018-02-20T00:06:32.322Z,23.45
2018-02-20T00:08:58.525Z,23.15
2018-02-20T00:11:24.652Z,22.83
2018-02-20T00:13:50.851Z,22.70
2018-02-20T00:16:17.090Z,23.42
2018-02-20T00:18:44.000Z,24.95
2018-02-20T00:21:10.898Z,24.60
2018-02-20T00:23:37.186Z,24.15
2018-02-20T00:26:03.399Z,23.33
2018-02-20T00:28:30.234Z,24.92
2018-02-20T00:30:56.518Z,24.05
2018-02-20T00:33:22.665Z,25.12
2018-02-20T00:35:48.836Z,24.55
2018-02-20T00:38:15.148Z,24.90
2018-02-20T00:40:41.234Z,22.00
2018-02-20T00:43:07.474Z,23.55
2018-02-20T00:45:34.634Z,22.87
2018-02-20T00:48:00.830Z,23.48
2018-02-20T00:50:27.105Z,23.92
2018-02-20T00:52:53.266Z,25.42
2018-02-20T00:55:21.292Z,23.90
2018-02-20T00:57:47.601Z,23.35
2018-02-20T01:00:15.029Z,22.42
2018-02-20T01:02:41.422Z,25.05
2018-02-20T01:05:09.199Z,23.60
2018-02-20T01:07:36.722Z,24.77
2018-02-20T01:10:02.920Z,24.30
2018-02-20T01:12:29.184Z,23.65
2018-02-20T01:14:55.554Z,24.60
2018-02-20T01:17:22.845Z,24.52
2018-02-20T01:19:49.171Z,25.90
2018-02-20T01:22:15.545Z,29.45
2018-02-20T01:24:41.840Z,24.60
2018-02-20T01:27:09.203Z,24.67
2018-02-20T01:29:35.632Z,24.90
2018-02-20T01:32:02.532Z,25.98
2018-02-20T01:34:30.484Z,23.75
2018-02-20T01:36:57.319Z,25.42
2018-02-20T01:39:23.654Z,25.60
2018-02-20T01:41:50.019Z,26.85
2018-02-20T01:44:17.005Z,24.23
2018-02-20T01:46:43.622Z,23.55
2018-02-20T01:49:09.909Z,23.40
2018-02-20T01:51:36.148Z,24.37
2018-02-20T01:54:02.414Z,22.05
2018-02-20T01:56:29.079Z,24.15
2018-02-20T01:58:55.374Z,24.42
2018-02-20T02:01:24.940Z,22.83
2018-02-20T02:03:52.342Z,23.27
2018-02-20T02:06:18.529Z,23.92
2018-02-20T02:08:44.813Z,21.85
2018-02-20T02:11:11.125Z,23.02
2018-02-20T02:13:38.094Z,24.65
2018-02-20T02:16:04.395Z,23.05
2018-02-20T02:18:30.581Z,25.85
2018-02-20T02:20:57.413Z,25.98
2018-02-20T02:23:23.611Z,25.12
2018-02-20T02:25:49.822Z,25.10
2018-02-20T02:28:15.938Z,23.90
2018-02-20T02:30:42.188Z,24.50
2018-02-20T02:33:09.340Z,26.05
2018-02-20T02:35:35.554Z,26.50
2018-02-20T02:38:03.467Z,24.63
2018-02-20T02:40:30.552Z,26.25
2018-02-20T02:42:59.239Z,24.77
2018-02-20T02:45:25.571Z,25.10
2018-02-20T02:47:51.899Z,26.30
2018-02-20T02:50:18.747Z,26.55
2018-02-20T02:52:45.992Z,24.58
2018-02-20T02:55:12.284Z,26.50
2018-02-20T02:57:39.266Z,26.85
2018-02-20T03:00:05.498Z,28.73
2018-02-20T03:02:33.716Z,25.45
2018-02-20T03:05:00.619Z,26.75
2018-02-20T03:07:26.948Z,28.20
2018-02-20T03:09:53.286Z,29.45
2018-02-20T03:12:20.741Z,26.40
2018-02-20T03:14:47.076Z,26.23
2018-02-20T03:17:13.285Z,25.40
2018-02-20T03:19:40.809Z,27.25
2018-02-20T03:22:08.057Z,27.98
2018-02-20T03:24:34.233Z,26.85
2018-02-20T03:27:00.801Z,25.70
2018-02-20T03:29:27.069Z,27.33
2018-02-20T03:31:53.676Z,27.48
2018-02-20T03:34:21.098Z,29.58
2018-02-20T03:36:47.757Z,26.10
2018-02-20T03:39:14.674Z,28.80
2018-02-20T03:41:40.798Z,25.40
2018-02-20T03:44:06.882Z,27.23
2018-02-20T03:46:33.080Z,27.35
2018-02-20T03:48:59.742Z,27.62
2018-02-20T03:51:25.967Z,29.37
2018-02-20T03:53:52.834Z,26.45
2018-02-20T03:56:19.301Z,27.98
2018-02-20T03:58:45.926Z,25.77
2018-02-20T04:01:12.939Z,26.27
2018-02-20T04:03:39.776Z,28.20
2018-02-20T04:06:06.630Z,26.80
2018-02-20T04:08:33.161Z,27.05
2018-02-20T04:11:00.393Z,28.85
2018-02-20T04:13:26.484Z,27.20
2018-02-20T04:15:52.620Z,27.42
2018-02-20T04:18:19.656Z,27.50
2018-02-20T04:20:45.888Z,27.48
2018-02-20T04:23:12.203Z,27.25
2018-02-20T04:25:38.390Z,26.67
2018-02-20T04:28:05.246Z,26.55
2018-02-20T04:30:31.708Z,27.52
2018-02-20T04:32:58.632Z,26.33
2018-02-20T04:35:24.726Z,27.73
2018-02-20T04:37:52.404Z,28.60
2018-02-20T04:40:19.728Z,27.48
2018-02-20T04:42:45.962Z,27.25
2018-02-20T04:45:12.312Z,29.92
2018-02-20T04:47:38.545Z,25.20
2018-02-20T04:50:06.598Z,27.10
2018-02-20T04:52:35.388Z,26.75
2018-02-20T04:55:01.719Z,26.30
2018-02-20T04:57:28.016Z,27.17
2018-02-20T04:59:54.551Z,26.62
2018-02-20T05:02:20.627Z,25.50
2018-02-20T05:04:46.747Z,26.12
2018-02-20T05:07:13.241Z,26.75
2018-02-20T05:09:40.257Z,26.77
2018-02-20T05:12:06.414Z,27.50
2018-02-20T05:14:33.615Z,26.85
2018-02-20T05:17:00.411Z,28.48
2018-02-20T05:19:26.673Z,25.75
2018-02-20T05:21:52.871Z,25.83
2018-02-20T05:24:19.037Z,25.77
2018-02-20T05:26:45.912Z,27.55
2018-02-20T05:29:11.942Z,26.62
2018-02-20T05:31:38.160Z,29.65
2018-02-20T05:34:04.262Z,26.62
2018-02-20T05:36:30.457Z,27.75
2018-02-20T05:38:56.576Z,27.37
2018-02-20T05:41:23.112Z,28.15
2018-02-20T05:43:49.963Z,26.85
2018-02-20T05:46:16.300Z,28.20
2018-02-20T05:48:42.674Z,28.52
2018-02-20T05:51:08.953Z,26.40
2018-02-20T05:53:35.046Z,26.55
2018-02-20T05:56:01.267Z,29.00
2018-02-20T05:58:28.240Z,27.58
2018-02-20T06:00:54.457Z,27.08
2018-02-20T06:03:21.604Z,27.25
2018-02-20T06:05:47.909Z,27.40
2018-02-20T06:08:14.412Z,28.58
2018-02-20T06:10:40.979Z,27.17
2018-02-20T06:13:07.940Z,28.23
2018-02-20T06:15:34.131Z,29.92
2018-02-20T06:18:01.061Z,28.40
2018-02-20T06:20:27.942Z,28.65
2018-02-20T06:22:54.523Z,28.90
2018-02-20T06:25:21.765Z,27.45
2018-02-20T06:27:47.882Z,29.15
2018-02-20T06:30:14.663Z,27.52
2018-02-20T06:32:41.016Z,27.00
2018-02-20T06:35:07.167Z,29.40
2018-02-20T06:37:34.123Z,29.52
2018-02-20T06:40:01.001Z,31.10
2018-02-20T06:42:27.588Z,28.05
2018-02-20T06:44:53.781Z,30.67
2018-02-20T06:47:21.584Z,27.83
2018-02-20T06:49:47.930Z,29.12
2018-02-20T06:52:14.128Z,30.30
2018-02-20T06:54:40.331Z,28.20
2018-02-20T06:57:07.216Z,30.50
2018-02-20T06:59:33.729Z,30.67
2018-02-20T07:02:00.678Z,28.95
2018-02-20T07:04:26.996Z,31.15
2018-02-20T07:06:53.578Z,28.25
2018-02-20T07:09:19.914Z,29.95
2018-02-20T07:11:46.682Z,29.75
2018-02-20T07:14:13.821Z,28.60
2018-02-20T07:16:40.186Z,31.62
2018-02-20T07:19:06.509Z,29.65
2018-02-20T07:21:33.359Z,28.00
2018-02-20T07:23:59.487Z,31.20
2018-02-20T07:26:25.606Z,28.62
2018-02-20T07:28:51.952Z,27.55
2018-02-20T07:31:20.325Z,28.73
2018-02-20T07:33:48.519Z,32.78
2018-02-20T07:36:14.641Z,28.83
2018-02-20T07:38:40.959Z,27.30
2018-02-20T07:41:10.394Z,28.67
2018-02-20T07:43:36.565Z,29.33
2018-02-20T07:46:04.200Z,29.02
2018-02-20T07:48:30.608Z,29.33
2018-02-20T07:50:56.793Z,28.12
2018-02-20T07:53:23.991Z,27.52
2018-02-20T07:55:50.552Z,27.08
2018-02-20T07:58:17.768Z,26.65
2018-02-20T08:00:44.159Z,28.55
2018-02-20T08:03:10.479Z,29.75
2018-02-20T08:05:36.650Z,29.65
2018-02-20T08:08:02.867Z,29.87
2018-02-20T08:10:29.169Z,28.70
2018-02-20T08:12:55.457Z,29.87
2018-02-20T08:15:21.957Z,28.90
2018-02-20T08:17:48.118Z,28.30
2018-02-20T08:20:15.405Z,29.40
2018-02-20T08:22:41.567Z,29.10
2018-02-20T08:25:07.723Z,29.30
2018-02-20T08:27:33.939Z,29.92
2018-02-20T08:30:01.454Z,30.27
2018-02-20T08:32:27.702Z,29.50
2018-02-20T08:34:55.294Z,30.65
2018-02-20T08:37:21.594Z,32.15
2018-02-20T08:39:49.326Z,32.60
2018-02-20T08:42:15.505Z,30.95
2018-02-20T08:44:42.284Z,29.17
2018-02-20T08:47:08.827Z,29.70
2018-02-20T08:49:34.968Z,28.95
2018-02-20T08:52:01.239Z,29.63
2018-02-20T08:54:27.412Z,28.40
2018-02-20T08:56:53.652Z,29.75
2018-02-20T08:59:19.862Z,29.52
2018-02-20T09:01:46.994Z,31.23
2018-02-20T09:04:14.008Z,29.02
2018-02-20T09:06:40.232Z,28.98
2018-02-20T09:09:06.620Z,31.15
2018-02-20T09:11:33.489Z,31.20
2018-02-20T09:13:59.611Z,31.70
2018-02-20T09:16:27.431Z,30.33
2018-02-20T09:18:54.349Z,30.80
2018-02-20T09:21:20.611Z,27.77
2018-02-20T09:23:46.778Z,27.48
2018-02-20T09:26:13.023Z,30.73
2018-02-20T09:28:40.133Z,30.65
2018-02-20T09:31:06.326Z,30.80
2018-02-20T09:33:33.168Z,31.40
2018-02-20T09:36:00.168Z,30.90
2018-02-20T09:38:27.247Z,29.77
2018-02-20T09:40:53.496Z,30.23
2018-02-20T09:43:19.904Z,30.05
2018-02-20T09:45:46.006Z,29.33
2018-02-20T09:48:12.233Z,29.90
2018-02-20T09:50:40.804Z,29.48
2018-02-20T09:53:06.923Z,31.12
2018-02-20T09:55:33.791Z,31.12
2018-02-20T09:57:59.992Z,29.60
2018-02-20T10:00:26.243Z,31.17
2018-02-20T10:02:53.149Z,31.75
2018-02-20T10:05:19.312Z,29.92
2018-02-20T10:07:45.506Z,31.33
2018-02-20T10:10:11.688Z,31.30
2018-02-20T10:12:39.984Z,28.90
2018-02-20T10:15:06.307Z,31.73
2018-02-20T10:17:32.490Z,31.42
2018-02-20T10:19:58.696Z,30.95
2018-02-20T10:22:24.945Z,29.73
2018-02-20T10:24:51.332Z,30.55
2018-02-20T10:27:17.534Z,31.48
2018-02-20T10:29:43.834Z,31.02
2018-02-20T10:32:11.898Z,29.73
2018-02-20T10:34:38.712Z,30.15
2018-02-20T10:37:05.735Z,31.15
2018-02-20T10:39:32.018Z,31.55
2018-02-20T10:41:59.012Z,31.08
2018-02-20T10:44:26.171Z,28.25
2018-02-20T10:46:53.169Z,29.37
2018-02-20T10:49:21.419Z,33.15
2018-02-20T10:51:47.531Z,29.10
2018-02-20T10:54:13.690Z,30.92
2018-02-20T10:56:39.999Z,30.37
2018-02-20T10:59:06.313Z,32.13
2018-02-20T11:01:32.367Z,30.65
2018-02-20T11:03:58.855Z,30.77
2018-02-20T11:06:25.894Z,31.12
2018-02-20T11:08:52.153Z,30.55
2018-02-20T11:11:18.790Z,32.47
2018-02-20T11:13:45.017Z,29.50
2018-02-20T11:16:11.544Z,31.12
2018-02-20T11:18:39.257Z,32.00
2018-02-20T11:21:06.464Z,30.25
2018-02-20T11:23:32.845Z,29.87
2018-02-20T11:25:59.126Z,28.40
2018-02-20T11:28:25.569Z,30.20
2018-02-20T11:30:51.890Z,29.17
2018-02-20T11:33:18.846Z,31.80
2018-02-20T11:35:45.404Z,30.92
2018-02-20T11:38:11.530Z,29.23
2018-02-20T11:40:37.750Z,30.05
2018-02-20T11:43:03.942Z,28.17
2018-02-20T11:45:31.500Z,30.37
2018-02-20T11:47:58.147Z,28.35
2018-02-20T11:50:24.984Z,29.13
2018-02-20T11:52:51.745Z,27.90
2018-02-20T11:55:18.894Z,27.98
2018-02-20T11:57:45.793Z,27.48
2018-02-20T12:00:12.078Z,28.60
2018-02-20T12:02:38.351Z,26.05
2018-02-20T12:05:04.520Z,26.10
2018-02-20T12:07:31.469Z,26.90
2018-02-20T12:09:58.398Z,27.37
2018-02-20T12:12:24.543Z,26.50
2018-02-20T12:14:51.302Z,22.63
2018-02-20T12:17:17.510Z,23.95
2018-02-20T12:19:44.394Z,22.70
2018-02-20T12:22:11.429Z,25.20
2018-02-20T12:24:38.007Z,25.23
2018-02-20T12:27:04.450Z,23.40
2018-02-20T12:29:31.069Z,25.30
2018-02-20T12:31:57.351Z,27.17
2018-02-20T12:34:23.705Z,26.33
2018-02-20T12:36:50.013Z,23.73
2018-02-20T12:39:16.837Z,22.70
2018-02-20T12:41:44.178Z,20.50
2018-02-20T12:44:11.103Z,23.47
2018-02-20T12:46:37.197Z,22.50
2018-02-20T12:49:03.351Z,22.97
2018-02-20T12:51:29.477Z,22.73
2018-02-20T12:53:57.448Z,22.57
2018-02-20T12:56:23.734Z,25.57
2018-02-20T12:58:50.878Z,21.23
2018-02-20T13:01:17.022Z,30.00
2018-02-20T13:03:43.293Z,30.83
2018-02-20T13:06:09.370Z,27.00
2018-02-20T13:08:36.630Z,22.97
2018-02-20T13:11:02.706Z,22.40
2018-02-20T13:13:28.936Z,22.90
2018-02-20T13:15:54.967Z,26.00
2018-02-20T13:18:21.481Z,24.57
2018-02-20T13:20:47.555Z,26.93
2018-02-20T13:23:13.743Z,28.37
2018-02-20T13:25:39.766Z,29.53
2018-02-20T13:28:06.313Z,29.23
2018-02-20T13:30:33.962Z,28.30
2018-02-20T13:33:00.519Z,31.10
2018-02-20T13:35:27.378Z,28.70
2018-02-20T13:37:55.954Z,27.55
2018-02-20T13:40:22.519Z,27.47
2018-02-20T13:42:50.610Z,33.50
2018-02-20T13:45:16.755Z,31.27
2018-02-20T13:47:43.961Z,30.20
2018-02-20T13:50:10.786Z,32.00
2018-02-20T13:52:37.676Z,30.47
2018-02-20T13:55:04.541Z,29.83
2018-02-20T13:57:31.941Z,31.45
2018-02-20T13:59:58.148Z,28.83
2018-02-20T14:02:24.378Z,32.50
2018-02-20T14:04:50.585Z,32.15
2018-02-20T14:07:17.535Z,32.70
2018-02-20T14:09:44.599Z,30.90
2018-02-20T14:12:10.978Z,31.50
2018-02-20T14:14:37.081Z,32.73
2018-02-20T14:17:03.281Z,30.60
2018-02-20T14:19:30.107Z,30.20
2018-02-20T14:21:58.427Z,27.33
2018-02-20T14:24:27.544Z,29.97
2018-02-20T14:26:53.640Z,28.57
2018-02-20T14:29:19.865Z,29.70
2018-02-20T14:31:46.709Z,32.50
2018-02-20T14:34:14.566Z,31.07
2018-02-20T14:36:40.541Z,27.93
2018-02-20T14:39:06.595Z,29.90
2018-02-20T14:41:32.679Z,31.03
2018-02-20T14:43:59.595Z,31.87
2018-02-20T14:46:26.748Z,31.20
2018-02-20T14:48:53.111Z,30.60
2018-02-20T14:51:19.288Z,29.57
2018-02-20T14:53:45.886Z,30.40
2018-02-20T14:56:12.174Z,31.93
2018-02-20T14:58:39.248Z,30.60
2018-02-20T15:01:07.122Z,32.70
2018-02-20T15:03:34.132Z,35.03
2018-02-20T15:06:00.217Z,34.60
2018-02-20T15:08:26.351Z,35.27
2018-02-20T15:10:52.483Z,35.27
2018-02-20T15:13:19.443Z,37.40
2018-02-20T15:15:46.426Z,35.73
2018-02-20T15:18:12.797Z,33.70
2018-02-20T15:20:38.807Z,31.90
2018-02-20T15:23:04.837Z,32.93
2018-02-20T15:25:31.639Z,33.60
2018-02-20T15:27:57.766Z,32.60
2018-02-20T15:30:24.229Z,34.60
2018-02-20T15:32:50.356Z,34.23
2018-02-20T15:35:17.220Z,34.30
2018-02-20T15:37:43.428Z,35.05
2018-02-20T15:40:09.552Z,37.67
2018-02-20T15:42:35.635Z,34.37
2018-02-20T15:45:01.771Z,34.60
2018-02-20T15:47:27.828Z,33.13
2018-02-20T15:49:54.010Z,32.47
2018-02-20T15:52:20.177Z,34.30
2018-02-20T15:54:46.241Z,34.42
2018-02-20T15:57:12.343Z,35.10
2018-02-20T15:59:38.487Z,35.97
2018-02-20T16:02:04.693Z,35.40
2018-02-20T16:04:31.646Z,35.70
2018-02-20T16:06:57.705Z,34.15
2018-02-20T16:09:24.223Z,35.67
2018-02-20T16:11:51.791Z,36.15
2018-02-20T16:14:17.886Z,36.28
2018-02-20T16:16:44.235Z,35.45
2018-02-20T16:19:11.242Z,35.90
2018-02-20T16:21:38.719Z,36.17
2018-02-20T16:24:04.940Z,34.85
2018-02-20T16:26:31.976Z,35.13
2018-02-20T16:28:58.183Z,35.90
2018-02-20T16:31:24.401Z,34.25
2018-02-20T16:33:50.980Z,34.55
2018-02-20T16:36:18.407Z,32.67
2018-02-20T16:38:44.579Z,36.97
2018-02-20T16:41:11.051Z,37.00
2018-02-20T16:43:37.181Z,34.40
2018-02-20T16:46:03.716Z,32.40
2018-02-20T16:48:30.602Z,34.67
2018-02-20T16:50:57.121Z,36.03
2018-02-20T16:53:23.409Z,36.97
2018-02-20T16:55:51.177Z,37.13
2018-02-20T16:58:18.120Z,34.25
2018-02-20T17:00:44.249Z,37.83
2018-02-20T17:03:10.397Z,37.17
2018-02-20T17:05:37.376Z,34.10
2018-02-20T17:08:03.680Z,34.88
2018-02-20T17:10:32.468Z,34.65
2018-02-20T17:12:58.946Z,36.33
2018-02-20T17:15:25.219Z,33.25
2018-02-20T17:17:51.741Z,34.80
2018-02-20T17:20:18.235Z,34.40
2018-02-20T17:22:45.190Z,38.58
2018-02-20T17:25:11.199Z,38.08
2018-02-20T17:27:37.732Z,37.28
2018-02-20T17:30:04.015Z,34.75
2018-02-20T17:32:30.178Z,33.88
2018-02-20T17:34:56.277Z,33.67
2018-02-20T17:37:23.515Z,33.80
2018-02-20T17:39:49.626Z,35.20
2018-02-20T17:42:15.801Z,35.25
2018-02-20T17:44:42.768Z,35.28
2018-02-20T17:47:08.876Z,36.92
2018-02-20T17:49:35.687Z,36.45
2018-02-20T17:52:03.755Z,34.00
2018-02-20T17:54:29.956Z,35.58
2018-02-20T17:56:56.978Z,36.15
2018-02-20T17:59:23.154Z,33.92
2018-02-20T18:01:49.283Z,35.70
2018-02-20T18:04:15.464Z,35.00
2018-02-20T18:06:42.223Z,36.67
2018-02-20T18:09:08.404Z,34.63
2018-02-20T18:11:34.615Z,37.05
2018-02-20T18:14:01.138Z,36.30
2018-02-20T18:16:27.329Z,36.13
2018-02-20T18:18:53.398Z,38.25
2018-02-20T18:21:19.431Z,38.28
2018-02-20T18:23:47.367Z,36.25
2018-02-20T18:26:13.678Z,36.05
2018-02-20T18:28:42.784Z,37.03
2018-02-20T18:31:09.826Z,39.20
2018-02-20T18:33:36.959Z,38.45
2018-02-20T18:36:03.023Z,36.92
2018-02-20T18:38:29.649Z,37.55
2018-02-20T18:40:55.838Z,38.97
2018-02-20T18:43:23.172Z,36.85
2018-02-20T18:45:49.336Z,37.28
2018-02-20T18:48:15.478Z,35.75
2018-02-20T18:50:42.422Z,34.45
2018-02-20T18:53:10.401Z,34.55
2018-02-20T18:55:36.620Z,34.17
2018-02-20T18:58:03.085Z,36.15
2018-02-20T19:00:29.137Z,32.05
2018-02-20T19:02:55.651Z,37.30
2018-02-20T19:05:22.537Z,35.78
2018-02-20T19:07:49.852Z,36.45
2018-02-20T19:10:16.068Z,34.97
2018-02-20T19:12:44.087Z,32.67
2018-02-20T19:15:10.260Z,35.05
2018-02-20T19:17:36.407Z,31.85
2018-02-20T19:20:02.479Z,32.38
2018-02-20T19:22:28.562Z,33.67
2018-02-20T19:24:54.635Z,32.13
2018-02-20T19:27:20.729Z,32.85
2018-02-20T19:29:46.754Z,34.58
2018-02-20T19:32:12.956Z,34.65
2018-02-20T19:34:39.240Z,34.63
2018-02-20T19:37:05.296Z,32.25
2018-02-20T19:39:31.537Z,34.58
2018-02-20T19:41:57.642Z,34.50
2018-02-20T19:44:23.775Z,33.00
2018-02-20T19:46:50.588Z,34.53
2018-02-20T19:49:16.755Z,32.95
2018-02-20T19:51:43.400Z,34.75
2018-02-20T19:54:10.544Z,37.35
2018-02-20T19:56:36.631Z,38.28
2018-02-20T19:59:02.772Z,33.10
2018-02-20T20:01:28.784Z,33.40
2018-02-20T20:03:55.281Z,32.67
2018-02-20T20:06:22.595Z,34.92
2018-02-20T20:08:48.787Z,34.20
2018-02-20T20:11:15.932Z,33.42
2018-02-20T20:13:42.683Z,34.38
2018-02-20T20:16:09.119Z,35.67
2018-02-20T20:18:35.959Z,38.17
2018-02-20T20:21:03.203Z,34.75
2018-02-20T20:23:30.762Z,35.20
2018-02-20T20:25:57.673Z,37.95
2018-02-20T20:28:23.754Z,35.67
2018-02-20T20:30:50.616Z,34.05
2018-02-20T20:33:17.447Z,37.13
2018-02-20T20:35:44.333Z,33.65
2018-02-20T20:38:10.425Z,37.10
2018-02-20T20:40:36.961Z,36.28
2018-02-20T20:43:03.086Z,35.03
2018-02-20T20:45:29.396Z,38.20
2018-02-20T20:47:55.503Z,35.53
2018-02-20T20:50:21.654Z,36.40
2018-02-20T20:52:47.861Z,37.67
2018-02-20T20:55:14.482Z,35.40
2018-02-20T20:57:40.694Z,39.38
2018-02-20T21:00:06.796Z,37.20
2018-02-20T21:02:33.012Z,36.85
2018-02-20T21:04:59.107Z,39.25
2018-02-20T21:07:25.676Z,39.03
2018-02-20T21:09:52.490Z,37.25
2018-02-20T21:12:19.467Z,37.53
2018-02-20T21:14:46.368Z,40.42
2018-02-20T21:17:13.379Z,40.00
2018-02-20T21:19:39.484Z,37.03
2018-02-20T21:22:06.540Z,38.45
2018-02-20T21:24:34.339Z,39.13
2018-02-20T21:27:01.812Z,39.72
2018-02-20T21:29:27.969Z,39.60
2018-02-20T21:31:54.151Z,36.40
2018-02-20T21:34:21.509Z,37.00
2018-02-20T21:36:49.954Z,37.72
2018-02-20T21:39:16.008Z,38.65
2018-02-20T21:41:42.087Z,35.35
2018-02-20T21:44:08.183Z,39.17
2018-02-20T21:46:36.209Z,40.22
2018-02-20T21:49:02.393Z,42.38
2018-02-20T21:51:28.547Z,39.60
2018-02-20T21:53:55.745Z,39.72
2018-02-20T21:56:21.933Z,39.60
2018-02-20T21:58:48.003Z,41.63
2018-02-20T22:01:14.160Z,40.67
2018-02-20T22:03:41.164Z,35.88
2018-02-20T22:06:07.178Z,39.97
2018-02-20T22:08:33.316Z,41.10
2018-02-20T22:10:59.400Z,39.05
2018-02-20T22:13:27.266Z,42.22
2018-02-20T22:15:53.277Z,37.38
2018-02-20T22:18:19.823Z,39.13
2018-02-20T22:20:45.939Z,40.58
2018-02-20T22:23:12.147Z,38.22
2018-02-20T22:25:38.374Z,39.22
2018-02-20T22:28:04.723Z,40.92
2018-02-20T22:30:32.223Z,38.83
2018-02-20T22:32:58.414Z,43.20
2018-02-20T22:35:24.621Z,38.13
2018-02-20T22:37:51.640Z,39.40
2018-02-20T22:40:17.889Z,40.42
2018-02-20T22:42:45.535Z,41.45
2018-02-20T22:45:11.679Z,40.78
2018-02-20T22:47:37.834Z,37.17
2018-02-20T22:50:04.244Z,40.97
2018-02-20T22:52:30.360Z,43.80
2018-02-20T22:54:56.590Z,41.75
2018-02-20T22:57:23.260Z,41.33
2018-02-20T22:59:50.308Z,42.60
2018-02-20T23:02:16.669Z,44.22
2018-02-20T23:04:43.148Z,42.08
2018-02-20T23:07:09.437Z,41.00
2018-02-20T23:09:35.644Z,44.00
2018-02-20T23:12:01.750Z,41.83
2018-02-20T23:14:28.118Z,42.00
2018-02-20T23:16:54.817Z,43.63
2018-02-20T23:19:21.046Z,40.47
2018-02-20T23:21:48.038Z,40.58
2018-02-20T23:24:14.143Z,44.22
2018-02-20T23:26:40.397Z,43.15
2018-02-20T23:29:06.517Z,42.22
2018-02-20T23:31:32.647Z,42.50
2018-02-20T23:33:59.550Z,42.10
2018-02-20T23:36:26.570Z,42.53
2018-02-20T23:38:52.782Z,41.70
2018-02-20T23:41:19.013Z,40.28
2018-02-20T23:43:45.500Z,43.63
2018-02-20T23:46:12.371Z,43.63
2018-02-20T23:48:39.155Z,44.55
2018-02-20T23:51:11.507Z,45.80
2018-02-20T23:53:37.801Z,42.80
2018-02-20T23:56:04.093Z,44.55
2018-02-20T23:58:31.620Z,43.03
